Reinoy — LAPF — position and weather

sailwx.info

Track history (hours):
 
Tides and Currents Weather Stations Pressure Air Temp Water Temp Dewpoint Dewpoint Depression Visibility Wind Speed Wind Dir Waves Ship Positions

Reinoy

Last reported at 2018-Jun-21 20:00 UTC. Time now 2018-Jun-21 19:59 UTC.
Position N 70°05' E 020°47'.

Length 46 m; draft 3 m.

Type: Passenger vessel. MMSI: 257350400.

Date/timePositionNaut miles runAvg speedWind from/ knotsBaromVisibWave heightAir tempDewpointWater temp
2018-Jun-21 20:00N 70°05' E 020°47'3 6.2
2018-Jun-21 19:30N 70°02' E 020°51'0 0.0
2018-Jun-21 19:00N 70°02' E 020°51'3 6.3
2018-Jun-21 18:30N 70°05' E 020°47'3 6.2
2018-Jun-21 18:00N 70°02' E 020°51'0 0.0
2018-Jun-21 17:28N 70°02' E 020°51'0 0.0
2018-Jun-21 16:59N 70°02' E 020°51'3 6.5
2018-Jun-21 16:30N 70°05' E 020°47'3 6.2
2018-Jun-21 16:00N 70°02' E 020°51'0 0.0
2018-Jun-21 15:29N 70°02' E 020°51'3 6.5
2018-Jun-21 15:00N 70°05' E 020°47'3 6.3
2018-Jun-21 14:30N 70°02' E 020°51'3 6.3
2018-Jun-21 14:00N 70°05' E 020°47'3 6.1
2018-Jun-21 13:30N 70°02' E 020°51'3 6.1
2018-Jun-21 12:59N 70°05' E 020°47'3 6.3
2018-Jun-21 12:30N 70°02' E 020°51'3 6.4
2018-Jun-21 12:00N 70°05' E 020°47'3 6.4
2018-Jun-21 11:30N 70°02' E 020°51'3 6.2
2018-Jun-21 11:00N 70°05' E 020°47'3 6.1
2018-Jun-21 10:29N 70°02' E 020°51'0 0.0
2018-Jun-21 10:00N 70°02' E 020°51'0 0.8
2018-Jun-21 09:29N 70°02' E 020°51'3 5.1
2018-Jun-21 09:00N 70°05' E 020°48'3 5.6
2018-Jun-21 08:30N 70°02' E 020°51'0 0.0
2018-Jun-21 07:59N 70°02' E 020°51'3 6.5
2018-Jun-21 07:30N 70°05' E 020°47'3 6.1
2018-Jun-21 07:00N 70°02' E 020°51'3 6.2
2018-Jun-21 06:29N 70°05' E 020°47'3 6.4
2018-Jun-21 06:00N 70°02' E 020°51'1 2.0
2018-Jun-21 05:30N 70°03' E 020°50'1 1.4
2018-Jun-21 04:59N 70°04' E 020°50'2 3.5
2018-Jun-21 04:29N 70°02' E 020°51'0 0.0
2018-Jun-21 03:59N 70°02' E 020°51'0 0.0
2018-Jun-21 03:29N 70°02' E 020°51'0 0.0
2018-Jun-21 02:59N 70°02' E 020°51'0 0.0
2018-Jun-21 02:29N 70°02' E 020°51'0 0.0
2018-Jun-21 01:59N 70°02' E 020°51'0 0.0
2018-Jun-21 01:29N 70°02' E 020°51'0 0.0
2018-Jun-21 00:59N 70°02' E 020°51'0 0.0
2018-Jun-21 00:29N 70°02' E 020°51'0 0.0
2018-Jun-20 23:59N 70°02' E 020°51'0 0.0
2018-Jun-20 23:29N 70°02' E 020°51'0 0.0
2018-Jun-20 22:59N 70°02' E 020°51'0 0.0
2018-Jun-20 22:29N 70°02' E 020°51'0 0.0
2018-Jun-20 21:59N 70°02' E 020°51'0 0.0
2018-Jun-20 21:29N 70°02' E 020°51'0 0.0
2018-Jun-20 20:59N 70°02' E 020°51'0 0.0
2018-Jun-20 20:30N 70°02' E 020°51'3 6.2
2018-Jun-20 20:00N 70°05' E 020°47'3 6.2
2018-Jun-20 19:30N 70°02' E 020°51'0 0.0
2018-Jun-20 19:00N 70°02' E 020°51'3 6.4
2018-Jun-20 18:30N 70°05' E 020°47'3 6.3
2018-Jun-20 18:00N 70°02' E 020°51'0 0.0
2018-Jun-20 17:30N 70°02' E 020°51'0 0.0
2018-Jun-20 16:59N 70°02' E 020°51'3 6.5
2018-Jun-20 16:30N 70°05' E 020°47'3 5.9
2018-Jun-20 15:59N 70°02' E 020°51'0 0.0
2018-Jun-20 15:29N 70°02' E 020°51'3 6.7
2018-Jun-20 15:00N 70°05' E 020°47'3 6.2
2018-Jun-20 14:30N 70°02' E 020°51'3 6.4
2018-Jun-20 14:00N 70°05' E 020°47'3 6.5
2018-Jun-20 13:30N 70°02' E 020°51'3 6.3
2018-Jun-20 13:00N 70°05' E 020°47'3 6.2
2018-Jun-20 12:30N 70°02' E 020°51'3 6.4
2018-Jun-20 12:00N 70°05' E 020°47'3 6.5
2018-Jun-20 11:30N 70°02' E 020°51'3 6.1
2018-Jun-20 11:00N 70°05' E 020°47'3 6.1
2018-Jun-20 10:30N 70°02' E 020°51'0 0.0
2018-Jun-20 09:59N 70°02' E 020°51'0 0.9
2018-Jun-20 09:29N 70°02' E 020°51'2 4.4
2018-Jun-20 09:00N 70°04' E 020°49'3 4.9
2018-Jun-20 08:29N 70°02' E 020°51'0 0.0
2018-Jun-20 07:57N 70°02' E 020°51'3 6.8
2018-Jun-20 07:30N 70°05' E 020°47'3 6.2
2018-Jun-20 07:00N 70°02' E 020°51'3 6.4
2018-Jun-20 06:30N 70°05' E 020°47'3 6.1
2018-Jun-20 06:00N 70°02' E 020°51'1 1.9
2018-Jun-20 05:30N 70°03' E 020°50'1 2.0
2018-Jun-20 05:00N 70°04' E 020°49'2 3.8
2018-Jun-20 04:30N 70°02' E 020°51'0 0.0
2018-Jun-20 04:00N 70°02' E 020°51'0 0.0
2018-Jun-20 03:30N 70°02' E 020°51'0 0.0
2018-Jun-20 03:00N 70°02' E 020°51'0 0.0
2018-Jun-20 02:30N 70°02' E 020°51'0 0.0
2018-Jun-20 02:00N 70°02' E 020°51'0 0.0
2018-Jun-20 01:30N 70°02' E 020°51'0 0.0
2018-Jun-20 01:00N 70°02' E 020°51'0 0.0
2018-Jun-20 00:30N 70°02' E 020°51'0 0.0
2018-Jun-20 00:00N 70°02' E 020°51'0 0.0
2018-Jun-19 23:30N 70°02' E 020°51'0 0.0
2018-Jun-19 23:00N 70°02' E 020°51'0 0.0
2018-Jun-19 22:30N 70°02' E 020°51'0 0.0
2018-Jun-19 22:00N 70°02' E 020°51'0 0.3
2018-Jun-19 21:30N 70°02' E 020°51'2 4.0
2018-Jun-19 21:00N 70°04' E 020°49'2 3.9
2018-Jun-19 20:30N 70°02' E 020°51'3 6.4
2018-Jun-19 20:00N 70°05' E 020°47'3 6.1
2018-Jun-19 19:30N 70°02' E 020°51'0 0.0
2018-Jun-19 19:00N 70°02' E 020°51'3 6.2
2018-Jun-19 18:30N 70°05' E 020°47'3 6.1
2018-Jun-19 18:00N 70°02' E 020°51'0 0.0
2018-Jun-19 17:29N 70°02' E 020°51'0 0.0
2018-Jun-19 16:59N 70°02' E 020°51'3 6.4
2018-Jun-19 16:30N 70°05' E 020°47'3 6.3
2018-Jun-19 16:00N 70°02' E 020°51'1 1.6
2018-Jun-19 15:30N 70°03' E 020°50'2 3.7
2018-Jun-19 15:00N 70°04' E 020°49'2 4.3
2018-Jun-19 14:30N 70°02' E 020°51'1 2.3
2018-Jun-19 14:00N 70°03' E 020°49'0 0.3
2018-Jun-19 13:30N 70°04' E 020°50'0 0.5
2018-Jun-19 12:59N 70°04' E 020°49'1 2.0
2018-Jun-19 12:30N 70°03' E 020°50'2 3.2
2018-Jun-19 12:00N 70°04' E 020°49'3 5.2
2018-Jun-19 11:30N 70°02' E 020°51'3 6.2
2018-Jun-19 11:00N 70°05' E 020°47'3 6.1
2018-Jun-19 10:30N 70°02' E 020°51'0 0.0
2018-Jun-19 10:01N 70°02' E 020°51'3 5.4
2018-Jun-19 09:30N 70°05' E 020°48'1 1.1
2018-Jun-19 09:00N 70°05' E 020°47'3 6.3
2018-Jun-19 08:30N 70°02' E 020°51'0 0.3
2018-Jun-19 08:00N 70°02' E 020°51'3 6.2
2018-Jun-19 07:29N 70°05' E 020°47'3 6.3
2018-Jun-19 07:00N 70°02' E 020°51'3 6.0
2018-Jun-19 06:28N 70°05' E 020°47'3 6.2
2018-Jun-19 05:58N 70°02' E 020°51'1 1.7
2018-Jun-19 05:30N 70°03' E 020°51'1 2.4
2018-Jun-19 05:00N 70°04' E 020°49'2 3.8
2018-Jun-19 04:29N 70°02' E 020°51'0 0.0
2018-Jun-19 03:59N 70°02' E 020°51'0 0.0
2018-Jun-19 03:29N 70°02' E 020°51'0 0.0
2018-Jun-19 02:59N 70°02' E 020°51'0 0.0
2018-Jun-19 02:29N 70°02' E 020°51'0 0.0
2018-Jun-19 01:59N 70°02' E 020°51'0 0.0
2018-Jun-19 01:29N 70°02' E 020°51'0 0.0
2018-Jun-19 00:59N 70°02' E 020°51'0 0.0
2018-Jun-19 00:29N 70°02' E 020°51'0 0.0
2018-Jun-18 23:59N 70°02' E 020°51'0 0.0
2018-Jun-18 23:29N 70°02' E 020°51'0 0.0
2018-Jun-18 22:59N 70°02' E 020°51'0 0.0
2018-Jun-18 22:29N 70°02' E 020°51'0 0.0
2018-Jun-18 21:59N 70°02' E 020°51'1 1.1
2018-Jun-18 21:30N 70°02' E 020°51'1 2.1
2018-Jun-18 21:00N 70°03' E 020°50'1 3.1
2018-Jun-18 20:31N 70°02' E 020°51'3 6.1
2018-Jun-18 20:00N 70°05' E 020°47'3 6.1
2018-Jun-18 19:30N 70°02' E 020°51'0 0.1
2018-Jun-18 18:59N 70°02' E 020°51'3 6.5
2018-Jun-18 18:30N 70°05' E 020°47'3 6.2
2018-Jun-18 18:00N 70°02' E 020°51'0 0.0
2018-Jun-18 17:30N 70°02' E 020°51'0 0.0
2018-Jun-18 17:00N 70°02' E 020°51'3 6.2
2018-Jun-18 16:30N 70°05' E 020°47'3 6.4
2018-Jun-18 16:00N 70°02' E 020°51'0 0.1
2018-Jun-18 15:30N 70°02' E 020°51'3 6.3
2018-Jun-18 15:00N 70°05' E 020°47'3 6.2
2018-Jun-18 14:30N 70°02' E 020°51'3 6.0
2018-Jun-18 14:00N 70°05' E 020°47'3 5.9
2018-Jun-18 13:30N 70°02' E 020°51'3 6.1
2018-Jun-18 12:59N 70°05' E 020°47'3 6.4
2018-Jun-18 12:30N 70°02' E 020°51'3 6.2
2018-Jun-18 11:59N 70°05' E 020°47'3 6.1
2018-Jun-18 11:29N 70°02' E 020°51'3 6.5
2018-Jun-18 11:00N 70°05' E 020°47'3 6.2
2018-Jun-18 10:30N 70°02' E 020°51'0 0.0
2018-Jun-18 09:58N 70°02' E 020°51'0 0.6
2018-Jun-18 09:30N 70°02' E 020°51'2 5.0
2018-Jun-18 09:00N 70°04' E 020°48'3 5.2
2018-Jun-18 08:30N 70°02' E 020°51'0 0.0
2018-Jun-18 08:00N 70°02' E 020°51'3 6.2
2018-Jun-18 07:30N 70°05' E 020°47'3 6.2
2018-Jun-18 07:00N 70°02' E 020°51'3 6.2
2018-Jun-18 06:30N 70°05' E 020°47'3 6.2
2018-Jun-18 06:00N 70°02' E 020°51'1 1.9
2018-Jun-18 05:30N 70°03' E 020°50'1 1.9
2018-Jun-18 05:00N 70°04' E 020°49'2 3.8
2018-Jun-18 04:30N 70°02' E 020°51'0 0.0
2018-Jun-18 03:58N 70°02' E 020°51'0 0.0
2018-Jun-18 03:28N 70°02' E 020°51'0 0.0
2018-Jun-18 02:58N 70°02' E 020°51'0 0.0
2018-Jun-18 02:28N 70°02' E 020°51'0 0.0
2018-Jun-18 01:58N 70°02' E 020°51'0 0.0
2018-Jun-18 01:28N 70°02' E 020°51'0 0.0
2018-Jun-18 00:58N 70°02' E 020°51'0 0.0
2018-Jun-18 00:28N 70°02' E 020°51'0 0.0
2018-Jun-17 23:58N 70°02' E 020°51'0 0.0
2018-Jun-17 23:28N 70°02' E 020°51'0 0.0
2018-Jun-17 22:58N 70°02' E 020°51'0 0.0
2018-Jun-17 22:28N 70°02' E 020°51'0 0.0
2018-Jun-17 21:58N 70°02' E 020°51'0 0.0
2018-Jun-17 21:28N 70°02' E 020°51'0 0.0
2018-Jun-17 20:58N 70°02' E 020°51'3 6.2
2018-Jun-17 20:29N 70°05' E 020°47'3 6.2
2018-Jun-17 20:00N 70°02' E 020°51'0 0.0
2018-Jun-17 19:29N 70°02' E 020°51'0 0.0
2018-Jun-17 18:59N 70°02' E 020°51'0 0.0
2018-Jun-17 18:29N 70°02' E 020°51'1 2.2
2018-Jun-17 18:00N 70°03' E 020°50'2 4.2
2018-Jun-17 17:30N 70°05' E 020°47'3 6.3
2018-Jun-17 17:00N 70°02' E 020°51'0 0.0
2018-Jun-17 16:29N 70°02' E 020°51'3 6.1
2018-Jun-17 15:59N 70°05' E 020°47'3 6.3
2018-Jun-17 15:29N 70°02' E 020°51'0 0.0
2018-Jun-17 14:59N 70°02' E 020°51'0 0.0
2018-Jun-17 14:30N 70°02' E 020°51'3 6.2
2018-Jun-17 14:00N 70°05' E 020°47'3 6.1
2018-Jun-17 13:30N 70°02' E 020°51'3 6.3
2018-Jun-17 13:00N 70°05' E 020°47'3 6.1
2018-Jun-17 12:29N 70°02' E 020°51'0 0.0
2018-Jun-17 11:58N 70°02' E 020°51'0 0.0
2018-Jun-17 11:28N 70°02' E 020°51'0 0.0
2018-Jun-17 10:58N 70°02' E 020°51'0 0.0
2018-Jun-17 10:28N 70°02' E 020°51'0 0.0
2018-Jun-17 09:58N 70°02' E 020°51'0 0.0
2018-Jun-17 09:28N 70°02' E 020°51'0 0.1
2018-Jun-17 09:00N 70°02' E 020°51'3 6.3
2018-Jun-17 08:30N 70°05' E 020°47'3 6.3
2018-Jun-17 08:00N 70°02' E 020°51'0 0.0
2018-Jun-17 07:28N 70°02' E 020°51'0 0.0
2018-Jun-17 06:58N 70°02' E 020°51'0 0.0
2018-Jun-17 06:28N 70°02' E 020°51'0 0.0
2018-Jun-17 05:58N 70°02' E 020°51'0 0.0
2018-Jun-17 05:28N 70°02' E 020°51'0 0.0
2018-Jun-17 04:58N 70°02' E 020°51'0 0.0
2018-Jun-17 04:28N 70°02' E 020°51'0 0.0
2018-Jun-17 03:58N 70°02' E 020°51'0 0.0
2018-Jun-17 03:28N 70°02' E 020°51'0 0.0
2018-Jun-17 02:58N 70°02' E 020°51'0 0.0
2018-Jun-17 02:28N 70°02' E 020°51'0 0.0
2018-Jun-17 01:58N 70°02' E 020°51'0 0.0
2018-Jun-17 01:28N 70°02' E 020°51'0 0.0
2018-Jun-17 00:58N 70°02' E 020°51'0 0.0
2018-Jun-17 00:28N 70°02' E 020°51'0 0.0
2018-Jun-16 23:58N 70°02' E 020°51'0 0.0
2018-Jun-16 23:28N 70°02' E 020°51'0 0.0
2018-Jun-16 22:58N 70°02' E 020°51'0 0.0
2018-Jun-16 22:28N 70°02' E 020°51'0 0.0
2018-Jun-16 21:58N 70°02' E 020°51'0 0.0
2018-Jun-16 21:28N 70°02' E 020°51'0 0.0
2018-Jun-16 20:58N 70°02' E 020°51'3 6.0
2018-Jun-16 20:28N 70°05' E 020°47'3 6.3
2018-Jun-16 20:00N 70°02' E 020°51'0 0.0
2018-Jun-16 19:29N 70°02' E 020°51'0 0.0
2018-Jun-16 18:59N 70°02' E 020°51'0 0.0
2018-Jun-16 18:29N 70°02' E 020°51'0 0.0
2018-Jun-16 17:59N 70°02' E 020°51'0 0.0
2018-Jun-16 17:29N 70°02' E 020°51'0 0.0
2018-Jun-16 17:00N 70°02' E 020°51'3 6.2
2018-Jun-16 16:30N 70°05' E 020°47'3 6.1
2018-Jun-16 15:59N 70°02' E 020°51'0 0.0
2018-Jun-16 15:28N 70°02' E 020°51'3 6.3
2018-Jun-16 14:59N 70°05' E 020°47'3 6.1
2018-Jun-16 14:28N 70°02' E 020°51'0 0.0
2018-Jun-16 13:58N 70°02' E 020°51'0 0.0
2018-Jun-16 13:28N 70°02' E 020°51'0 0.3
2018-Jun-16 12:59N 70°02' E 020°51'3 6.8
2018-Jun-16 12:30N 70°05' E 020°47'3 6.1
2018-Jun-16 12:00N 70°02' E 020°51'0 0.0
2018-Jun-16 11:28N 70°02' E 020°51'0 0.0
2018-Jun-16 10:58N 70°02' E 020°51'0 0.0
2018-Jun-16 10:28N 70°02' E 020°51'0 0.0
2018-Jun-16 09:58N 70°02' E 020°51'0 0.0
2018-Jun-16 09:28N 70°02' E 020°51'0 0.2
2018-Jun-16 09:00N 70°02' E 020°51'3 6.4
2018-Jun-16 08:30N 70°05' E 020°47'3 6.4
2018-Jun-16 08:00N 70°02' E 020°51'0 0.0
2018-Jun-16 07:30N 70°02' E 020°51'0 0.3
2018-Jun-16 07:00N 70°02' E 020°51'3 6.0
2018-Jun-16 06:28N 70°05' E 020°47'3 6.3
2018-Jun-16 05:59N 70°02' E 020°51'0 0.0
2018-Jun-16 05:30N 70°02' E 020°51'0 0.0
2018-Jun-16 05:00N 70°02' E 020°51'0 0.0
2018-Jun-16 04:27N 70°02' E 020°51'0 0.0
2018-Jun-16 04:00N 70°02' E 020°51'0 0.0
2018-Jun-16 03:30N 70°02' E 020°51'0 0.0
2018-Jun-16 03:00N 70°02' E 020°51'0 0.0
2018-Jun-16 02:30N 70°02' E 020°51'0 0.0
2018-Jun-16 02:00N 70°02' E 020°51'0 0.0
2018-Jun-16 01:30N 70°02' E 020°51'0 0.0
2018-Jun-16 01:00N 70°02' E 020°51'0 0.0
2018-Jun-16 00:30N 70°02' E 020°51'0 0.0
2018-Jun-16 00:00N 70°02' E 020°51'0 0.0
2018-Jun-15 23:30N 70°02' E 020°51'0 0.0
2018-Jun-15 23:00N 70°02' E 020°51'0 0.0
2018-Jun-15 22:30N 70°02' E 020°51'0 0.0
2018-Jun-15 22:00N 70°02' E 020°51'0 0.1
2018-Jun-15 21:30N 70°02' E 020°51'2 4.3
2018-Jun-15 21:00N 70°04' E 020°49'2 4.3
2018-Jun-15 20:30N 70°02' E 020°51'3 6.2
2018-Jun-15 20:00N 70°05' E 020°47'3 6.2
2018-Jun-15 19:30N 70°02' E 020°51'0 0.0
2018-Jun-15 19:00N 70°02' E 020°51'3 6.4
2018-Jun-15 18:30N 70°05' E 020°47'3 6.3
2018-Jun-15 17:59N 70°02' E 020°51'0 0.0
2018-Jun-15 17:29N 70°02' E 020°51'0 0.0
2018-Jun-15 16:59N 70°02' E 020°51'3 6.3
2018-Jun-15 16:30N 70°05' E 020°47'3 6.1
2018-Jun-15 15:59N 70°02' E 020°51'1 1.6
2018-Jun-15 15:30N 70°03' E 020°50'2 3.7
2018-Jun-15 15:00N 70°04' E 020°49'3 5.3
2018-Jun-15 14:30N 70°02' E 020°51'2 5.0
2018-Jun-15 14:00N 70°04' E 020°49'2 3.0
2018-Jun-15 13:30N 70°03' E 020°51'2 4.6
2018-Jun-15 13:00N 70°05' E 020°47'3 6.3
2018-Jun-15 12:30N 70°02' E 020°51'3 6.2
2018-Jun-15 12:00N 70°05' E 020°47'3 6.5
2018-Jun-15 11:30N 70°02' E 020°51'3 6.0
2018-Jun-15 10:59N 70°05' E 020°47'3 6.2
2018-Jun-15 10:29N 70°02' E 020°51'0 0.0
2018-Jun-15 10:00N 70°02' E 020°51'0 0.3
2018-Jun-15 09:30N 70°02' E 020°51'3 6.1
2018-Jun-15 09:00N 70°05' E 020°48'3 5.6
2018-Jun-15 08:30N 70°02' E 020°51'0 0.0
2018-Jun-15 07:59N 70°02' E 020°51'3 6.4
2018-Jun-15 07:30N 70°05' E 020°47'3 6.3
2018-Jun-15 07:00N 70°02' E 020°51'3 6.2
2018-Jun-15 06:30N 70°05' E 020°47'3 6.3
2018-Jun-15 06:00N 70°02' E 020°51'1 1.5
2018-Jun-15 05:30N 70°03' E 020°51'1 2.2
2018-Jun-15 04:59N 70°04' E 020°49'2 3.8
2018-Jun-15 04:30N 70°02' E 020°51'0 0.0
2018-Jun-15 04:00N 70°02' E 020°51'0 0.0
2018-Jun-15 03:30N 70°02' E 020°51'0 0.0
2018-Jun-15 03:00N 70°02' E 020°51'0 0.0
2018-Jun-15 02:30N 70°02' E 020°51'0 0.0
2018-Jun-15 02:00N 70°02' E 020°51'0 0.0
2018-Jun-15 01:30N 70°02' E 020°51'0 0.0
2018-Jun-15 01:00N 70°02' E 020°51'0 0.0
2018-Jun-15 00:29N 70°02' E 020°51'0 0.0
2018-Jun-15 00:00N 70°02' E 020°51'0 0.0
2018-Jun-14 23:30N 70°02' E 020°51'0 0.0
2018-Jun-14 23:00N 70°02' E 020°51'0 0.0
2018-Jun-14 22:29N 70°02' E 020°51'0 0.0
2018-Jun-14 22:00N 70°02' E 020°51'0 0.0
2018-Jun-14 21:30N 70°02' E 020°51'0 0.0
2018-Jun-14 21:00N 70°02' E 020°51'0 0.0
2018-Jun-14 20:30N 70°02' E 020°51'3 6.3
2018-Jun-14 20:00N 70°05' E 020°47'3 6.2
2018-Jun-14 19:30N 70°02' E 020°51'0 0.0
2018-Jun-14 19:00N 70°02' E 020°51'3 6.4
2018-Jun-14 18:30N 70°05' E 020°47'3 6.2
2018-Jun-14 18:00N 70°02' E 020°51'0 0.0
2018-Jun-14 17:30N 70°02' E 020°51'0 0.0
2018-Jun-14 17:00N 70°02' E 020°51'3 6.2
2018-Jun-14 16:30N 70°05' E 020°47'3 6.3
2018-Jun-14 16:00N 70°02' E 020°51'0 0.1
2018-Jun-14 15:30N 70°02' E 020°51'3 6.2
2018-Jun-14 15:00N 70°05' E 020°47'3 6.5
2018-Jun-14 14:30N 70°02' E 020°51'3 5.8
2018-Jun-14 13:58N 70°05' E 020°47'3 6.7
2018-Jun-14 13:30N 70°02' E 020°51'3 6.0
2018-Jun-14 12:59N 70°05' E 020°47'3 6.4
2018-Jun-14 12:30N 70°02' E 020°51'3 6.2
2018-Jun-14 12:00N 70°05' E 020°47'3 6.3
2018-Jun-14 11:30N 70°02' E 020°51'3 6.3
2018-Jun-14 11:00N 70°05' E 020°47'3 6.2
2018-Jun-14 10:30N 70°02' E 020°51'0 0.0
2018-Jun-14 10:00N 70°02' E 020°51'0 0.4
2018-Jun-14 09:30N 70°02' E 020°51'3 5.1
2018-Jun-14 09:00N 70°04' E 020°49'3 5.3
2018-Jun-14 08:30N 70°02' E 020°51'0 0.0
2018-Jun-14 08:00N 70°02' E 020°51'3 6.2
2018-Jun-14 07:30N 70°05' E 020°47'3 6.1
2018-Jun-14 06:59N 70°02' E 020°51'3 6.5
2018-Jun-14 06:30N 70°05' E 020°47'3 6.2
2018-Jun-14 06:00N 70°02' E 020°51'2 3.1
2018-Jun-14 05:30N 70°03' E 020°49'1 1.0
2018-Jun-14 05:00N 70°04' E 020°49'2 4.1
2018-Jun-14 04:30N 70°02' E 020°51'0 0.0
2018-Jun-14 03:59N 70°02' E 020°51'0 0.0
2018-Jun-14 03:29N 70°02' E 020°51'0 0.0
2018-Jun-14 02:59N 70°02' E 020°51'0 0.0
2018-Jun-14 02:29N 70°02' E 020°51'0 0.0
2018-Jun-14 01:59N 70°02' E 020°51'0 0.0
2018-Jun-14 01:29N 70°02' E 020°51'0 0.0
2018-Jun-14 00:59N 70°02' E 020°51'0 0.0
2018-Jun-14 00:29N 70°02' E 020°51'0 0.0
2018-Jun-13 23:58N 70°02' E 020°51'0 0.0
2018-Jun-13 23:28N 70°02' E 020°51'0 0.0
2018-Jun-13 22:58N 70°02' E 020°51'0 0.0
2018-Jun-13 22:28N 70°02' E 020°51'0 0.0
2018-Jun-13 21:58N 70°02' E 020°51'0 0.2
2018-Jun-13 21:30N 70°02' E 020°51'2 4.4
2018-Jun-13 21:00N 70°04' E 020°49'2 4.3
2018-Jun-13 20:29N 70°02' E 020°51'3 6.5
2018-Jun-13 19:59N 70°05' E 020°47'3 6.4
2018-Jun-13 19:30N 70°02' E 020°51'0 0.0
2018-Jun-13 18:59N 70°02' E 020°51'3 6.4
2018-Jun-13 18:30N 70°05' E 020°47'3 6.3
2018-Jun-13 18:00N 70°02' E 020°51'0 0.0
2018-Jun-13 17:29N 70°02' E 020°51'0 0.0
2018-Jun-13 16:58N 70°02' E 020°51'3 6.5
2018-Jun-13 16:29N 70°05' E 020°47'3 6.4
2018-Jun-13 16:00N 70°02' E 020°51'0 0.0
2018-Jun-13 15:30N 70°02' E 020°51'3 6.3
2018-Jun-13 15:00N 70°05' E 020°47'3 6.3
2018-Jun-13 14:30N 70°02' E 020°51'3 6.1
2018-Jun-13 14:00N 70°05' E 020°47'3 6.3
2018-Jun-13 13:30N 70°02' E 020°51'3 6.3
2018-Jun-13 13:00N 70°05' E 020°47'3 6.3
2018-Jun-13 12:30N 70°02' E 020°51'3 6.2
2018-Jun-13 12:00N 70°05' E 020°47'3 6.4
2018-Jun-13 11:30N 70°02' E 020°51'3 6.1
2018-Jun-13 10:59N 70°05' E 020°47'3 6.3
2018-Jun-13 10:29N 70°02' E 020°51'0 0.0
2018-Jun-13 09:59N 70°02' E 020°51'0 0.1
2018-Jun-13 09:31N 70°02' E 020°51'3 5.6
2018-Jun-13 09:00N 70°05' E 020°48'3 5.5
2018-Jun-13 08:30N 70°02' E 020°51'0 0.0
2018-Jun-13 08:00N 70°02' E 020°51'3 6.2
2018-Jun-13 07:29N 70°05' E 020°47'3 6.4
2018-Jun-13 07:00N 70°02' E 020°51'3 6.1
2018-Jun-13 06:30N 70°05' E 020°47'3 6.3
2018-Jun-13 06:00N 70°02' E 020°51'2 3.0
2018-Jun-13 05:29N 70°03' E 020°49'0 0.3
2018-Jun-13 04:59N 70°03' E 020°50'2 3.4
2018-Jun-13 04:30N 70°02' E 020°51'0 0.0
2018-Jun-13 04:00N 70°02' E 020°51'0 0.0
2018-Jun-13 03:30N 70°02' E 020°51'0 0.0
2018-Jun-13 02:59N 70°02' E 020°51'0 0.0
2018-Jun-13 02:30N 70°02' E 020°51'0 0.0
2018-Jun-13 02:00N 70°02' E 020°51'0 0.0
2018-Jun-13 01:29N 70°02' E 020°51'0 0.0
2018-Jun-13 01:00N 70°02' E 020°51'0 0.0
2018-Jun-13 00:30N 70°02' E 020°51'0 0.0
2018-Jun-13 00:00N 70°02' E 020°51'0 0.0
2018-Jun-12 23:30N 70°02' E 020°51'0 0.0
2018-Jun-12 23:00N 70°02' E 020°51'0 0.0
2018-Jun-12 22:30N 70°02' E 020°51'0 0.0
2018-Jun-12 22:00N 70°02' E 020°51'0 0.1
2018-Jun-12 21:30N 70°02' E 020°51'2 4.3
2018-Jun-12 21:00N 70°04' E 020°49'2 4.2
2018-Jun-12 20:30N 70°02' E 020°51'3 6.1
2018-Jun-12 19:59N 70°05' E 020°47'3 6.4
2018-Jun-12 19:30N 70°02' E 020°51'0 0.0
2018-Jun-12 19:00N 70°02' E 020°51'3 6.2
2018-Jun-12 18:29N 70°05' E 020°47'3 6.1
2018-Jun-12 17:59N 70°02' E 020°51'0 0.0
2018-Jun-12 17:30N 70°02' E 020°51'0 0.0
2018-Jun-12 16:59N 70°02' E 020°51'3 6.4
2018-Jun-12 16:30N 70°05' E 020°47'3 6.2
2018-Jun-12 16:00N 70°02' E 020°51'0 0.0
2018-Jun-12 15:30N 70°02' E 020°51'3 6.3
2018-Jun-12 15:00N 70°05' E 020°47'3 6.2
2018-Jun-12 14:30N 70°02' E 020°51'3 6.0
2018-Jun-12 13:58N 70°05' E 020°47'3 6.7
2018-Jun-12 13:30N 70°02' E 020°51'3 6.1
2018-Jun-12 13:00N 70°05' E 020°47'3 6.4
2018-Jun-12 12:30N 70°02' E 020°51'3 6.3
2018-Jun-12 12:00N 70°05' E 020°47'3 6.4
2018-Jun-12 11:30N 70°02' E 020°51'3 6.1
2018-Jun-12 11:00N 70°05' E 020°47'3 6.0
2018-Jun-12 10:30N 70°02' E 020°51'0 0.0
2018-Jun-12 10:00N 70°02' E 020°51'0 0.5
2018-Jun-12 09:30N 70°02' E 020°51'2 4.9
2018-Jun-12 09:00N 70°04' E 020°49'3 5.0
2018-Jun-12 08:30N 70°02' E 020°51'0 0.0
2018-Jun-12 08:00N 70°02' E 020°51'3 6.2
2018-Jun-12 07:30N 70°05' E 020°47'3 6.3
2018-Jun-12 07:00N 70°02' E 020°51'3 6.0
2018-Jun-12 06:29N 70°05' E 020°47'3 6.4
2018-Jun-12 06:00N 70°02' E 020°51'2 3.0
2018-Jun-12 05:30N 70°03' E 020°49'0 0.9
2018-Jun-12 05:00N 70°04' E 020°49'2 3.8
2018-Jun-12 04:29N 70°02' E 020°51'0 0.0
2018-Jun-12 03:59N 70°02' E 020°51'0 0.0
2018-Jun-12 03:29N 70°02' E 020°51'0 0.0
2018-Jun-12 02:59N 70°02' E 020°51'0 0.0
2018-Jun-12 02:29N 70°02' E 020°51'0 0.0
2018-Jun-12 01:59N 70°02' E 020°51'0 0.0
2018-Jun-12 01:29N 70°02' E 020°51'0 0.0
2018-Jun-12 00:59N 70°02' E 020°51'0 0.0
2018-Jun-12 00:29N 70°02' E 020°51'0 0.0
2018-Jun-11 23:59N 70°02' E 020°51'0 0.0
2018-Jun-11 23:29N 70°02' E 020°51'0 0.0
2018-Jun-11 22:59N 70°02' E 020°51'0 0.0
2018-Jun-11 22:29N 70°02' E 020°51'0 0.0
2018-Jun-11 21:59N 70°02' E 020°51'0 0.7
2018-Jun-11 21:29N 70°02' E 020°51'1 2.7
2018-Jun-11 21:00N 70°04' E 020°50'2 3.3
2018-Jun-11 20:30N 70°02' E 020°51'3 6.2
2018-Jun-11 20:00N 70°05' E 020°47'  
Track history (hours):
 
Tides and Currents Weather Stations Pressure Air Temp Water Temp Dewpoint Dewpoint Depression Visibility Wind Speed Wind Dir Waves Ship Positions

Reinoy

Last reported at 2018-Jun-21 20:00 UTC. Time now 2018-Jun-21 19:59 UTC.
Position N 70°05' E 020°47'.

Length 46 m; draft 3 m.

Type: Passenger vessel. MMSI: 257350400.

Date/timePositionNaut miles runAvg speedWind from/ knotsBaromVisibWave heightAir tempDewpointWater temp
2018-Jun-21 20:00N 70°05' E 020°47'3 6.2
2018-Jun-21 19:30N 70°02' E 020°51'0 0.0
2018-Jun-21 19:00N 70°02' E 020°51'3 6.3
2018-Jun-21 18:30N 70°05' E 020°47'3 6.2
2018-Jun-21 18:00N 70°02' E 020°51'0 0.0
2018-Jun-21 17:28N 70°02' E 020°51'0 0.0
2018-Jun-21 16:59N 70°02' E 020°51'3 6.5
2018-Jun-21 16:30N 70°05' E 020°47'3 6.2
2018-Jun-21 16:00N 70°02' E 020°51'0 0.0
2018-Jun-21 15:29N 70°02' E 020°51'3 6.5
2018-Jun-21 15:00N 70°05' E 020°47'3 6.3
2018-Jun-21 14:30N 70°02' E 020°51'3 6.3
2018-Jun-21 14:00N 70°05' E 020°47'3 6.1
2018-Jun-21 13:30N 70°02' E 020°51'3 6.1
2018-Jun-21 12:59N 70°05' E 020°47'3 6.3
2018-Jun-21 12:30N 70°02' E 020°51'3 6.4
2018-Jun-21 12:00N 70°05' E 020°47'3 6.4
2018-Jun-21 11:30N 70°02' E 020°51'3 6.2
2018-Jun-21 11:00N 70°05' E 020°47'3 6.1
2018-Jun-21 10:29N 70°02' E 020°51'0 0.0
2018-Jun-21 10:00N 70°02' E 020°51'0 0.8
2018-Jun-21 09:29N 70°02' E 020°51'3 5.1
2018-Jun-21 09:00N 70°05' E 020°48'3 5.6
2018-Jun-21 08:30N 70°02' E 020°51'0 0.0
2018-Jun-21 07:59N 70°02' E 020°51'3 6.5
2018-Jun-21 07:30N 70°05' E 020°47'3 6.1
2018-Jun-21 07:00N 70°02' E 020°51'3 6.2
2018-Jun-21 06:29N 70°05' E 020°47'3 6.4
2018-Jun-21 06:00N 70°02' E 020°51'1 2.0
2018-Jun-21 05:30N 70°03' E 020°50'1 1.4
2018-Jun-21 04:59N 70°04' E 020°50'2 3.5
2018-Jun-21 04:29N 70°02' E 020°51'0 0.0
2018-Jun-21 03:59N 70°02' E 020°51'0 0.0
2018-Jun-21 03:29N 70°02' E 020°51'0 0.0
2018-Jun-21 02:59N 70°02' E 020°51'0 0.0
2018-Jun-21 02:29N 70°02' E 020°51'0 0.0
2018-Jun-21 01:59N 70°02' E 020°51'0 0.0
2018-Jun-21 01:29N 70°02' E 020°51'0 0.0
2018-Jun-21 00:59N 70°02' E 020°51'0 0.0
2018-Jun-21 00:29N 70°02' E 020°51'0 0.0
2018-Jun-20 23:59N 70°02' E 020°51'0 0.0
2018-Jun-20 23:29N 70°02' E 020°51'0 0.0
2018-Jun-20 22:59N 70°02' E 020°51'0 0.0
2018-Jun-20 22:29N 70°02' E 020°51'0 0.0
2018-Jun-20 21:59N 70°02' E 020°51'0 0.0
2018-Jun-20 21:29N 70°02' E 020°51'0 0.0
2018-Jun-20 20:59N 70°02' E 020°51'0 0.0
2018-Jun-20 20:30N 70°02' E 020°51'3 6.2
2018-Jun-20 20:00N 70°05' E 020°47'3 6.2
2018-Jun-20 19:30N 70°02' E 020°51'0 0.0
2018-Jun-20 19:00N 70°02' E 020°51'3 6.4
2018-Jun-20 18:30N 70°05' E 020°47'3 6.3
2018-Jun-20 18:00N 70°02' E 020°51'0 0.0
2018-Jun-20 17:30N 70°02' E 020°51'0 0.0
2018-Jun-20 16:59N 70°02' E 020°51'3 6.5
2018-Jun-20 16:30N 70°05' E 020°47'3 5.9
2018-Jun-20 15:59N 70°02' E 020°51'0 0.0
2018-Jun-20 15:29N 70°02' E 020°51'3 6.7
2018-Jun-20 15:00N 70°05' E 020°47'3 6.2
2018-Jun-20 14:30N 70°02' E 020°51'3 6.4
2018-Jun-20 14:00N 70°05' E 020°47'3 6.5
2018-Jun-20 13:30N 70°02' E 020°51'3 6.3
2018-Jun-20 13:00N 70°05' E 020°47'3 6.2
2018-Jun-20 12:30N 70°02' E 020°51'3 6.4
2018-Jun-20 12:00N 70°05' E 020°47'3 6.5
2018-Jun-20 11:30N 70°02' E 020°51'3 6.1
2018-Jun-20 11:00N 70°05' E 020°47'3 6.1
2018-Jun-20 10:30N 70°02' E 020°51'0 0.0
2018-Jun-20 09:59N 70°02' E 020°51'0 0.9
2018-Jun-20 09:29N 70°02' E 020°51'2 4.4
2018-Jun-20 09:00N 70°04' E 020°49'3 4.9
2018-Jun-20 08:29N 70°02' E 020°51'0 0.0
2018-Jun-20 07:57N 70°02' E 020°51'3 6.8
2018-Jun-20 07:30N 70°05' E 020°47'3 6.2
2018-Jun-20 07:00N 70°02' E 020°51'3 6.4
2018-Jun-20 06:30N 70°05' E 020°47'3 6.1
2018-Jun-20 06:00N 70°02' E 020°51'1 1.9
2018-Jun-20 05:30N 70°03' E 020°50'1 2.0
2018-Jun-20 05:00N 70°04' E 020°49'2 3.8
2018-Jun-20 04:30N 70°02' E 020°51'0 0.0
2018-Jun-20 04:00N 70°02' E 020°51'0 0.0
2018-Jun-20 03:30N 70°02' E 020°51'0 0.0
2018-Jun-20 03:00N 70°02' E 020°51'0 0.0
2018-Jun-20 02:30N 70°02' E 020°51'0 0.0
2018-Jun-20 02:00N 70°02' E 020°51'0 0.0
2018-Jun-20 01:30N 70°02' E 020°51'0 0.0
2018-Jun-20 01:00N 70°02' E 020°51'0 0.0
2018-Jun-20 00:30N 70°02' E 020°51'0 0.0
2018-Jun-20 00:00N 70°02' E 020°51'0 0.0
2018-Jun-19 23:30N 70°02' E 020°51'0 0.0
2018-Jun-19 23:00N 70°02' E 020°51'0 0.0
2018-Jun-19 22:30N 70°02' E 020°51'0 0.0
2018-Jun-19 22:00N 70°02' E 020°51'0 0.3
2018-Jun-19 21:30N 70°02' E 020°51'2 4.0
2018-Jun-19 21:00N 70°04' E 020°49'2 3.9
2018-Jun-19 20:30N 70°02' E 020°51'3 6.4
2018-Jun-19 20:00N 70°05' E 020°47'3 6.1
2018-Jun-19 19:30N 70°02' E 020°51'0 0.0
2018-Jun-19 19:00N 70°02' E 020°51'3 6.2
2018-Jun-19 18:30N 70°05' E 020°47'3 6.1
2018-Jun-19 18:00N 70°02' E 020°51'0 0.0
2018-Jun-19 17:29N 70°02' E 020°51'0 0.0
2018-Jun-19 16:59N 70°02' E 020°51'3 6.4
2018-Jun-19 16:30N 70°05' E 020°47'3 6.3
2018-Jun-19 16:00N 70°02' E 020°51'1 1.6
2018-Jun-19 15:30N 70°03' E 020°50'2 3.7
2018-Jun-19 15:00N 70°04' E 020°49'2 4.3
2018-Jun-19 14:30N 70°02' E 020°51'1 2.3
2018-Jun-19 14:00N 70°03' E 020°49'0 0.3
2018-Jun-19 13:30N 70°04' E 020°50'0 0.5
2018-Jun-19 12:59N 70°04' E 020°49'1 2.0
2018-Jun-19 12:30N 70°03' E 020°50'2 3.2
2018-Jun-19 12:00N 70°04' E 020°49'3 5.2
2018-Jun-19 11:30N 70°02' E 020°51'3 6.2
2018-Jun-19 11:00N 70°05' E 020°47'3 6.1
2018-Jun-19 10:30N 70°02' E 020°51'0 0.0
2018-Jun-19 10:01N 70°02' E 020°51'3 5.4
2018-Jun-19 09:30N 70°05' E 020°48'1 1.1
2018-Jun-19 09:00N 70°05' E 020°47'3 6.3
2018-Jun-19 08:30N 70°02' E 020°51'0 0.3
2018-Jun-19 08:00N 70°02' E 020°51'3 6.2
2018-Jun-19 07:29N 70°05' E 020°47'3 6.3
2018-Jun-19 07:00N 70°02' E 020°51'3 6.0
2018-Jun-19 06:28N 70°05' E 020°47'3 6.2
2018-Jun-19 05:58N 70°02' E 020°51'1 1.7
2018-Jun-19 05:30N 70°03' E 020°51'1 2.4
2018-Jun-19 05:00N 70°04' E 020°49'2 3.8
2018-Jun-19 04:29N 70°02' E 020°51'0 0.0
2018-Jun-19 03:59N 70°02' E 020°51'0 0.0
2018-Jun-19 03:29N 70°02' E 020°51'0 0.0
2018-Jun-19 02:59N 70°02' E 020°51'0 0.0
2018-Jun-19 02:29N 70°02' E 020°51'0 0.0
2018-Jun-19 01:59N 70°02' E 020°51'0 0.0
2018-Jun-19 01:29N 70°02' E 020°51'0 0.0
2018-Jun-19 00:59N 70°02' E 020°51'0 0.0
2018-Jun-19 00:29N 70°02' E 020°51'0 0.0
2018-Jun-18 23:59N 70°02' E 020°51'0 0.0
2018-Jun-18 23:29N 70°02' E 020°51'0 0.0
2018-Jun-18 22:59N 70°02' E 020°51'0 0.0
2018-Jun-18 22:29N 70°02' E 020°51'0 0.0
2018-Jun-18 21:59N 70°02' E 020°51'1 1.1
2018-Jun-18 21:30N 70°02' E 020°51'1 2.1
2018-Jun-18 21:00N 70°03' E 020°50'1 3.1
2018-Jun-18 20:31N 70°02' E 020°51'3 6.1
2018-Jun-18 20:00N 70°05' E 020°47'3 6.1
2018-Jun-18 19:30N 70°02' E 020°51'0 0.1
2018-Jun-18 18:59N 70°02' E 020°51'3 6.5
2018-Jun-18 18:30N 70°05' E 020°47'3 6.2
2018-Jun-18 18:00N 70°02' E 020°51'0 0.0
2018-Jun-18 17:30N 70°02' E 020°51'0 0.0
2018-Jun-18 17:00N 70°02' E 020°51'3 6.2
2018-Jun-18 16:30N 70°05' E 020°47'3 6.4
2018-Jun-18 16:00N 70°02' E 020°51'0 0.1
2018-Jun-18 15:30N 70°02' E 020°51'3 6.3
2018-Jun-18 15:00N 70°05' E 020°47'3 6.2
2018-Jun-18 14:30N 70°02' E 020°51'3 6.0
2018-Jun-18 14:00N 70°05' E 020°47'3 5.9
2018-Jun-18 13:30N 70°02' E 020°51'3 6.1
2018-Jun-18 12:59N 70°05' E 020°47'3 6.4
2018-Jun-18 12:30N 70°02' E 020°51'3 6.2
2018-Jun-18 11:59N 70°05' E 020°47'3 6.1
2018-Jun-18 11:29N 70°02' E 020°51'3 6.5
2018-Jun-18 11:00N 70°05' E 020°47'3 6.2
2018-Jun-18 10:30N 70°02' E 020°51'0 0.0
2018-Jun-18 09:58N 70°02' E 020°51'0 0.6
2018-Jun-18 09:30N 70°02' E 020°51'2 5.0
2018-Jun-18 09:00N 70°04' E 020°48'3 5.2
2018-Jun-18 08:30N 70°02' E 020°51'0 0.0
2018-Jun-18 08:00N 70°02' E 020°51'3 6.2
2018-Jun-18 07:30N 70°05' E 020°47'3 6.2
2018-Jun-18 07:00N 70°02' E 020°51'3 6.2
2018-Jun-18 06:30N 70°05' E 020°47'3 6.2
2018-Jun-18 06:00N 70°02' E 020°51'1 1.9
2018-Jun-18 05:30N 70°03' E 020°50'1 1.9
2018-Jun-18 05:00N 70°04' E 020°49'2 3.8
2018-Jun-18 04:30N 70°02' E 020°51'0 0.0
2018-Jun-18 03:58N 70°02' E 020°51'0 0.0
2018-Jun-18 03:28N 70°02' E 020°51'0 0.0
2018-Jun-18 02:58N 70°02' E 020°51'0 0.0
2018-Jun-18 02:28N 70°02' E 020°51'0 0.0
2018-Jun-18 01:58N 70°02' E 020°51'0 0.0
2018-Jun-18 01:28N 70°02' E 020°51'0 0.0
2018-Jun-18 00:58N 70°02' E 020°51'0 0.0
2018-Jun-18 00:28N 70°02' E 020°51'0 0.0
2018-Jun-17 23:58N 70°02' E 020°51'0 0.0
2018-Jun-17 23:28N 70°02' E 020°51'0 0.0
2018-Jun-17 22:58N 70°02' E 020°51'0 0.0
2018-Jun-17 22:28N 70°02' E 020°51'0 0.0
2018-Jun-17 21:58N 70°02' E 020°51'0 0.0
2018-Jun-17 21:28N 70°02' E 020°51'0 0.0
2018-Jun-17 20:58N 70°02' E 020°51'3 6.2
2018-Jun-17 20:29N 70°05' E 020°47'3 6.2
2018-Jun-17 20:00N 70°02' E 020°51'0 0.0
2018-Jun-17 19:29N 70°02' E 020°51'0 0.0
2018-Jun-17 18:59N 70°02' E 020°51'0 0.0
2018-Jun-17 18:29N 70°02' E 020°51'1 2.2
2018-Jun-17 18:00N 70°03' E 020°50'2 4.2
2018-Jun-17 17:30N 70°05' E 020°47'3 6.3
2018-Jun-17 17:00N 70°02' E 020°51'0 0.0
2018-Jun-17 16:29N 70°02' E 020°51'3 6.1
2018-Jun-17 15:59N 70°05' E 020°47'3 6.3
2018-Jun-17 15:29N 70°02' E 020°51'0 0.0
2018-Jun-17 14:59N 70°02' E 020°51'0 0.0
2018-Jun-17 14:30N 70°02' E 020°51'3 6.2
2018-Jun-17 14:00N 70°05' E 020°47'3 6.1
2018-Jun-17 13:30N 70°02' E 020°51'3 6.3
2018-Jun-17 13:00N 70°05' E 020°47'3 6.1
2018-Jun-17 12:29N 70°02' E 020°51'0 0.0
2018-Jun-17 11:58N 70°02' E 020°51'0 0.0
2018-Jun-17 11:28N 70°02' E 020°51'0 0.0
2018-Jun-17 10:58N 70°02' E 020°51'0 0.0
2018-Jun-17 10:28N 70°02' E 020°51'0 0.0
2018-Jun-17 09:58N 70°02' E 020°51'0 0.0
2018-Jun-17 09:28N 70°02' E 020°51'0 0.1
2018-Jun-17 09:00N 70°02' E 020°51'3 6.3
2018-Jun-17 08:30N 70°05' E 020°47'3 6.3
2018-Jun-17 08:00N 70°02' E 020°51'0 0.0
2018-Jun-17 07:28N 70°02' E 020°51'0 0.0
2018-Jun-17 06:58N 70°02' E 020°51'0 0.0
2018-Jun-17 06:28N 70°02' E 020°51'0 0.0
2018-Jun-17 05:58N 70°02' E 020°51'0 0.0
2018-Jun-17 05:28N 70°02' E 020°51'0 0.0
2018-Jun-17 04:58N 70°02' E 020°51'0 0.0
2018-Jun-17 04:28N 70°02' E 020°51'0 0.0
2018-Jun-17 03:58N 70°02' E 020°51'0 0.0
2018-Jun-17 03:28N 70°02' E 020°51'0 0.0
2018-Jun-17 02:58N 70°02' E 020°51'0 0.0
2018-Jun-17 02:28N 70°02' E 020°51'0 0.0
2018-Jun-17 01:58N 70°02' E 020°51'0 0.0
2018-Jun-17 01:28N 70°02' E 020°51'0 0.0
2018-Jun-17 00:58N 70°02' E 020°51'0 0.0
2018-Jun-17 00:28N 70°02' E 020°51'0 0.0
2018-Jun-16 23:58N 70°02' E 020°51'0 0.0
2018-Jun-16 23:28N 70°02' E 020°51'0 0.0
2018-Jun-16 22:58N 70°02' E 020°51'0 0.0
2018-Jun-16 22:28N 70°02' E 020°51'0 0.0
2018-Jun-16 21:58N 70°02' E 020°51'0 0.0
2018-Jun-16 21:28N 70°02' E 020°51'0 0.0
2018-Jun-16 20:58N 70°02' E 020°51'3 6.0
2018-Jun-16 20:28N 70°05' E 020°47'3 6.3
2018-Jun-16 20:00N 70°02' E 020°51'0 0.0
2018-Jun-16 19:29N 70°02' E 020°51'0 0.0
2018-Jun-16 18:59N 70°02' E 020°51'0 0.0
2018-Jun-16 18:29N 70°02' E 020°51'0 0.0
2018-Jun-16 17:59N 70°02' E 020°51'0 0.0
2018-Jun-16 17:29N 70°02' E 020°51'0 0.0
2018-Jun-16 17:00N 70°02' E 020°51'3 6.2
2018-Jun-16 16:30N 70°05' E 020°47'3 6.1
2018-Jun-16 15:59N 70°02' E 020°51'0 0.0
2018-Jun-16 15:28N 70°02' E 020°51'3 6.3
2018-Jun-16 14:59N 70°05' E 020°47'3 6.1
2018-Jun-16 14:28N 70°02' E 020°51'0 0.0
2018-Jun-16 13:58N 70°02' E 020°51'0 0.0
2018-Jun-16 13:28N 70°02' E 020°51'0 0.3
2018-Jun-16 12:59N 70°02' E 020°51'3 6.8
2018-Jun-16 12:30N 70°05' E 020°47'3 6.1
2018-Jun-16 12:00N 70°02' E 020°51'0 0.0
2018-Jun-16 11:28N 70°02' E 020°51'0 0.0
2018-Jun-16 10:58N 70°02' E 020°51'0 0.0
2018-Jun-16 10:28N 70°02' E 020°51'0 0.0
2018-Jun-16 09:58N 70°02' E 020°51'0 0.0
2018-Jun-16 09:28N 70°02' E 020°51'0 0.2
2018-Jun-16 09:00N 70°02' E 020°51'3 6.4
2018-Jun-16 08:30N 70°05' E 020°47'3 6.4
2018-Jun-16 08:00N 70°02' E 020°51'0 0.0
2018-Jun-16 07:30N 70°02' E 020°51'0 0.3
2018-Jun-16 07:00N 70°02' E 020°51'3 6.0
2018-Jun-16 06:28N 70°05' E 020°47'3 6.3
2018-Jun-16 05:59N 70°02' E 020°51'0 0.0
2018-Jun-16 05:30N 70°02' E 020°51'0 0.0
2018-Jun-16 05:00N 70°02' E 020°51'0 0.0
2018-Jun-16 04:27N 70°02' E 020°51'0 0.0
2018-Jun-16 04:00N 70°02' E 020°51'0 0.0
2018-Jun-16 03:30N 70°02' E 020°51'0 0.0
2018-Jun-16 03:00N 70°02' E 020°51'0 0.0
2018-Jun-16 02:30N 70°02' E 020°51'0 0.0
2018-Jun-16 02:00N 70°02' E 020°51'0 0.0
2018-Jun-16 01:30N 70°02' E 020°51'0 0.0
2018-Jun-16 01:00N 70°02' E 020°51'0 0.0
2018-Jun-16 00:30N 70°02' E 020°51'0 0.0
2018-Jun-16 00:00N 70°02' E 020°51'0 0.0
2018-Jun-15 23:30N 70°02' E 020°51'0 0.0
2018-Jun-15 23:00N 70°02' E 020°51'0 0.0
2018-Jun-15 22:30N 70°02' E 020°51'0 0.0
2018-Jun-15 22:00N 70°02' E 020°51'0 0.1
2018-Jun-15 21:30N 70°02' E 020°51'2 4.3
2018-Jun-15 21:00N 70°04' E 020°49'2 4.3
2018-Jun-15 20:30N 70°02' E 020°51'3 6.2
2018-Jun-15 20:00N 70°05' E 020°47'3 6.2
2018-Jun-15 19:30N 70°02' E 020°51'0 0.0
2018-Jun-15 19:00N 70°02' E 020°51'3 6.4
2018-Jun-15 18:30N 70°05' E 020°47'3 6.3
2018-Jun-15 17:59N 70°02' E 020°51'0 0.0
2018-Jun-15 17:29N 70°02' E 020°51'0 0.0
2018-Jun-15 16:59N 70°02' E 020°51'3 6.3
2018-Jun-15 16:30N 70°05' E 020°47'3 6.1
2018-Jun-15 15:59N 70°02' E 020°51'1 1.6
2018-Jun-15 15:30N 70°03' E 020°50'2 3.7
2018-Jun-15 15:00N 70°04' E 020°49'3 5.3
2018-Jun-15 14:30N 70°02' E 020°51'2 5.0
2018-Jun-15 14:00N 70°04' E 020°49'2 3.0
2018-Jun-15 13:30N 70°03' E 020°51'2 4.6
2018-Jun-15 13:00N 70°05' E 020°47'3 6.3
2018-Jun-15 12:30N 70°02' E 020°51'3 6.2
2018-Jun-15 12:00N 70°05' E 020°47'3 6.5
2018-Jun-15 11:30N 70°02' E 020°51'3 6.0
2018-Jun-15 10:59N 70°05' E 020°47'3 6.2
2018-Jun-15 10:29N 70°02' E 020°51'0 0.0
2018-Jun-15 10:00N 70°02' E 020°51'0 0.3
2018-Jun-15 09:30N 70°02' E 020°51'3 6.1
2018-Jun-15 09:00N 70°05' E 020°48'3 5.6
2018-Jun-15 08:30N 70°02' E 020°51'0 0.0
2018-Jun-15 07:59N 70°02' E 020°51'3 6.4
2018-Jun-15 07:30N 70°05' E 020°47'3 6.3
2018-Jun-15 07:00N 70°02' E 020°51'3 6.2
2018-Jun-15 06:30N 70°05' E 020°47'3 6.3
2018-Jun-15 06:00N 70°02' E 020°51'1 1.5
2018-Jun-15 05:30N 70°03' E 020°51'1 2.2
2018-Jun-15 04:59N 70°04' E 020°49'2 3.8
2018-Jun-15 04:30N 70°02' E 020°51'0 0.0
2018-Jun-15 04:00N 70°02' E 020°51'0 0.0
2018-Jun-15 03:30N 70°02' E 020°51'0 0.0
2018-Jun-15 03:00N 70°02' E 020°51'0 0.0
2018-Jun-15 02:30N 70°02' E 020°51'0 0.0
2018-Jun-15 02:00N 70°02' E 020°51'0 0.0
2018-Jun-15 01:30N 70°02' E 020°51'0 0.0
2018-Jun-15 01:00N 70°02' E 020°51'0 0.0
2018-Jun-15 00:29N 70°02' E 020°51'0 0.0
2018-Jun-15 00:00N 70°02' E 020°51'0 0.0
2018-Jun-14 23:30N 70°02' E 020°51'0 0.0
2018-Jun-14 23:00N 70°02' E 020°51'0 0.0
2018-Jun-14 22:29N 70°02' E 020°51'0 0.0
2018-Jun-14 22:00N 70°02' E 020°51'0 0.0
2018-Jun-14 21:30N 70°02' E 020°51'0 0.0
2018-Jun-14 21:00N 70°02' E 020°51'0 0.0
2018-Jun-14 20:30N 70°02' E 020°51'3 6.3
2018-Jun-14 20:00N 70°05' E 020°47'3 6.2
2018-Jun-14 19:30N 70°02' E 020°51'0 0.0
2018-Jun-14 19:00N 70°02' E 020°51'3 6.4
2018-Jun-14 18:30N 70°05' E 020°47'3 6.2
2018-Jun-14 18:00N 70°02' E 020°51'0 0.0
2018-Jun-14 17:30N 70°02' E 020°51'0 0.0
2018-Jun-14 17:00N 70°02' E 020°51'3 6.2
2018-Jun-14 16:30N 70°05' E 020°47'3 6.3
2018-Jun-14 16:00N 70°02' E 020°51'0 0.1
2018-Jun-14 15:30N 70°02' E 020°51'3 6.2
2018-Jun-14 15:00N 70°05' E 020°47'3 6.5
2018-Jun-14 14:30N 70°02' E 020°51'3 5.8
2018-Jun-14 13:58N 70°05' E 020°47'3 6.7
2018-Jun-14 13:30N 70°02' E 020°51'3 6.0
2018-Jun-14 12:59N 70°05' E 020°47'3 6.4
2018-Jun-14 12:30N 70°02' E 020°51'3 6.2
2018-Jun-14 12:00N 70°05' E 020°47'3 6.3
2018-Jun-14 11:30N 70°02' E 020°51'3 6.3
2018-Jun-14 11:00N 70°05' E 020°47'3 6.2
2018-Jun-14 10:30N 70°02' E 020°51'0 0.0
2018-Jun-14 10:00N 70°02' E 020°51'0 0.4
2018-Jun-14 09:30N 70°02' E 020°51'3 5.1
2018-Jun-14 09:00N 70°04' E 020°49'3 5.3
2018-Jun-14 08:30N 70°02' E 020°51'0 0.0
2018-Jun-14 08:00N 70°02' E 020°51'3 6.2
2018-Jun-14 07:30N 70°05' E 020°47'3 6.1
2018-Jun-14 06:59N 70°02' E 020°51'3 6.5
2018-Jun-14 06:30N 70°05' E 020°47'3 6.2
2018-Jun-14 06:00N 70°02' E 020°51'2 3.1
2018-Jun-14 05:30N 70°03' E 020°49'1 1.0
2018-Jun-14 05:00N 70°04' E 020°49'2 4.1
2018-Jun-14 04:30N 70°02' E 020°51'0 0.0
2018-Jun-14 03:59N 70°02' E 020°51'0 0.0
2018-Jun-14 03:29N 70°02' E 020°51'0 0.0
2018-Jun-14 02:59N 70°02' E 020°51'0 0.0
2018-Jun-14 02:29N 70°02' E 020°51'0 0.0
2018-Jun-14 01:59N 70°02' E 020°51'0 0.0
2018-Jun-14 01:29N 70°02' E 020°51'0 0.0
2018-Jun-14 00:59N 70°02' E 020°51'0 0.0
2018-Jun-14 00:29N 70°02' E 020°51'0 0.0
2018-Jun-13 23:58N 70°02' E 020°51'0 0.0
2018-Jun-13 23:28N 70°02' E 020°51'0 0.0
2018-Jun-13 22:58N 70°02' E 020°51'0 0.0
2018-Jun-13 22:28N 70°02' E 020°51'0 0.0
2018-Jun-13 21:58N 70°02' E 020°51'0 0.2
2018-Jun-13 21:30N 70°02' E 020°51'2 4.4
2018-Jun-13 21:00N 70°04' E 020°49'2 4.3
2018-Jun-13 20:29N 70°02' E 020°51'3 6.5
2018-Jun-13 19:59N 70°05' E 020°47'3 6.4
2018-Jun-13 19:30N 70°02' E 020°51'0 0.0
2018-Jun-13 18:59N 70°02' E 020°51'3 6.4
2018-Jun-13 18:30N 70°05' E 020°47'3 6.3
2018-Jun-13 18:00N 70°02' E 020°51'0 0.0
2018-Jun-13 17:29N 70°02' E 020°51'0 0.0
2018-Jun-13 16:58N 70°02' E 020°51'3 6.5
2018-Jun-13 16:29N 70°05' E 020°47'3 6.4
2018-Jun-13 16:00N 70°02' E 020°51'0 0.0
2018-Jun-13 15:30N 70°02' E 020°51'3 6.3
2018-Jun-13 15:00N 70°05' E 020°47'3 6.3
2018-Jun-13 14:30N 70°02' E 020°51'3 6.1
2018-Jun-13 14:00N 70°05' E 020°47'3 6.3
2018-Jun-13 13:30N 70°02' E 020°51'3 6.3
2018-Jun-13 13:00N 70°05' E 020°47'3 6.3
2018-Jun-13 12:30N 70°02' E 020°51'3 6.2
2018-Jun-13 12:00N 70°05' E 020°47'3 6.4
2018-Jun-13 11:30N 70°02' E 020°51'3 6.1
2018-Jun-13 10:59N 70°05' E 020°47'3 6.3
2018-Jun-13 10:29N 70°02' E 020°51'0 0.0
2018-Jun-13 09:59N 70°02' E 020°51'0 0.1
2018-Jun-13 09:31N 70°02' E 020°51'3 5.6
2018-Jun-13 09:00N 70°05' E 020°48'3 5.5
2018-Jun-13 08:30N 70°02' E 020°51'0 0.0
2018-Jun-13 08:00N 70°02' E 020°51'3 6.2
2018-Jun-13 07:29N 70°05' E 020°47'3 6.4
2018-Jun-13 07:00N 70°02' E 020°51'3 6.1
2018-Jun-13 06:30N 70°05' E 020°47'3 6.3
2018-Jun-13 06:00N 70°02' E 020°51'2 3.0
2018-Jun-13 05:29N 70°03' E 020°49'0 0.3
2018-Jun-13 04:59N 70°03' E 020°50'2 3.4
2018-Jun-13 04:30N 70°02' E 020°51'0 0.0
2018-Jun-13 04:00N 70°02' E 020°51'0 0.0
2018-Jun-13 03:30N 70°02' E 020°51'0 0.0
2018-Jun-13 02:59N 70°02' E 020°51'0 0.0
2018-Jun-13 02:30N 70°02' E 020°51'0 0.0
2018-Jun-13 02:00N 70°02' E 020°51'0 0.0
2018-Jun-13 01:29N 70°02' E 020°51'0 0.0
2018-Jun-13 01:00N 70°02' E 020°51'0 0.0
2018-Jun-13 00:30N 70°02' E 020°51'0 0.0
2018-Jun-13 00:00N 70°02' E 020°51'0 0.0
2018-Jun-12 23:30N 70°02' E 020°51'0 0.0
2018-Jun-12 23:00N 70°02' E 020°51'0 0.0
2018-Jun-12 22:30N 70°02' E 020°51'0 0.0
2018-Jun-12 22:00N 70°02' E 020°51'0 0.1
2018-Jun-12 21:30N 70°02' E 020°51'2 4.3
2018-Jun-12 21:00N 70°04' E 020°49'2 4.2
2018-Jun-12 20:30N 70°02' E 020°51'3 6.1
2018-Jun-12 19:59N 70°05' E 020°47'3 6.4
2018-Jun-12 19:30N 70°02' E 020°51'0 0.0
2018-Jun-12 19:00N 70°02' E 020°51'3 6.2
2018-Jun-12 18:29N 70°05' E 020°47'3 6.1
2018-Jun-12 17:59N 70°02' E 020°51'0 0.0
2018-Jun-12 17:30N 70°02' E 020°51'0 0.0
2018-Jun-12 16:59N 70°02' E 020°51'3 6.4
2018-Jun-12 16:30N 70°05' E 020°47'3 6.2
2018-Jun-12 16:00N 70°02' E 020°51'0 0.0
2018-Jun-12 15:30N 70°02' E 020°51'3 6.3
2018-Jun-12 15:00N 70°05' E 020°47'3 6.2
2018-Jun-12 14:30N 70°02' E 020°51'3 6.0
2018-Jun-12 13:58N 70°05' E 020°47'3 6.7
2018-Jun-12 13:30N 70°02' E 020°51'3 6.1
2018-Jun-12 13:00N 70°05' E 020°47'3 6.4
2018-Jun-12 12:30N 70°02' E 020°51'3 6.3
2018-Jun-12 12:00N 70°05' E 020°47'3 6.4
2018-Jun-12 11:30N 70°02' E 020°51'3 6.1
2018-Jun-12 11:00N 70°05' E 020°47'3 6.0
2018-Jun-12 10:30N 70°02' E 020°51'0 0.0
2018-Jun-12 10:00N 70°02' E 020°51'0 0.5
2018-Jun-12 09:30N 70°02' E 020°51'2 4.9
2018-Jun-12 09:00N 70°04' E 020°49'3 5.0
2018-Jun-12 08:30N 70°02' E 020°51'0 0.0
2018-Jun-12 08:00N 70°02' E 020°51'3 6.2
2018-Jun-12 07:30N 70°05' E 020°47'3 6.3
2018-Jun-12 07:00N 70°02' E 020°51'3 6.0
2018-Jun-12 06:29N 70°05' E 020°47'3 6.4
2018-Jun-12 06:00N 70°02' E 020°51'2 3.0
2018-Jun-12 05:30N 70°03' E 020°49'0 0.9
2018-Jun-12 05:00N 70°04' E 020°49'2 3.8
2018-Jun-12 04:29N 70°02' E 020°51'0 0.0
2018-Jun-12 03:59N 70°02' E 020°51'0 0.0
2018-Jun-12 03:29N 70°02' E 020°51'0 0.0
2018-Jun-12 02:59N 70°02' E 020°51'0 0.0
2018-Jun-12 02:29N 70°02' E 020°51'0 0.0
2018-Jun-12 01:59N 70°02' E 020°51'0 0.0
2018-Jun-12 01:29N 70°02' E 020°51'0 0.0
2018-Jun-12 00:59N 70°02' E 020°51'0 0.0
2018-Jun-12 00:29N 70°02' E 020°51'0 0.0
2018-Jun-11 23:59N 70°02' E 020°51'0 0.0
2018-Jun-11 23:29N 70°02' E 020°51'0 0.0
2018-Jun-11 22:59N 70°02' E 020°51'0 0.0
2018-Jun-11 22:29N 70°02' E 020°51'0 0.0
2018-Jun-11 21:59N 70°02' E 020°51'0 0.7
2018-Jun-11 21:29N 70°02' E 020°51'1 2.7
2018-Jun-11 21:00N 70°04' E 020°50'2 3.3
2018-Jun-11 20:30N 70°02' E 020°51'3 6.2
2018-Jun-11 20:00N 70°05' E 020°47'  

Dump ship's entire track history